Time;durP1;ratioP1;P1;durP2;ratioP2;P2;SDS_P1;SDS_P2;PMS_P1;PMS_P2;Temp;Humidity;BMP_temperature;BMP_pressure;BME280_temperature;BME280_humidity;BME280_pressure;Samples;Min_cycle;Max_cycle;Signal;HPM_P1;HPM_P2
2022/08/17 00:00:42;;;;;;;71.30;9.07;;;23.70;40.40;;;;;;5066902;28;20414;-82
2022/08/17 00:03:19;;;;;;;74.47;8.70;;;23.70;41.90;;;;;;5083715;28;20446;-82
2022/08/17 00:06:12;;;;;;;70.60;9.50;;;23.70;42.20;;;;;;5083425;28;20429;-82
2022/08/17 00:08:51;;;;;;;71.90;10.47;;;23.60;43.20;;;;;;5065229;28;20956;-82
2022/08/17 00:11:47;;;;;;;71.27;8.93;;;23.60;43.90;;;;;;5083662;28;20384;-82
2022/08/17 00:14:16;;;;;;;72.80;10.00;;;23.60;44.70;;;;;;5065107;28;20412;-82
2022/08/17 00:16:50;;;;;;;70.13;10.20;;;23.70;45.30;;;;;;5084255;28;20423;-82
2022/08/17 00:19:22;;;;;;;71.90;10.97;;;23.60;46.60;;;;;;5084265;28;20525;-82
2022/08/17 00:21:50;;;;;;;73.57;10.50;;;23.60;46.90;;;;;;5084344;28;20383;-81
2022/08/17 00:24:17;;;;;;;74.97;10.40;;;23.60;48.00;;;;;;5083479;28;20518;-82
2022/08/17 00:26:43;;;;;;;72.50;10.10;;;23.50;44.00;;;;;;5081793;28;20430;-82
2022/08/17 00:29:09;;;;;;;71.13;8.40;;;23.50;46.40;;;;;;5083385;28;20426;-82
2022/08/17 00:31:35;;;;;;;71.80;8.33;;;23.40;41.20;;;;;;5083785;28;20417;-82
2022/08/17 00:34:03;;;;;;;73.30;8.57;;;23.40;39.20;;;;;;5082593;28;20535;-82
2022/08/17 00:36:29;;;;;;;69.80;6.97;;;23.20;36.60;;;;;;5081942;28;20505;-82
2022/08/17 00:38:54;;;;;;;78.07;7.27;;;23.10;33.80;;;;;;5084187;28;20406;-82
2022/08/17 00:41:23;;;;;;;69.27;6.50;;;23.00;37.60;;;;;;5066290;28;20460;-82
2022/08/17 00:43:59;;;;;;;73.00;7.30;;;23.10;35.00;;;;;;5084302;28;20171;-82
2022/08/17 00:46:43;;;;;;;73.70;6.97;;;23.10;33.90;;;;;;5064490;28;20484;-82
2022/08/17 00:49:11;;;;;;;68.87;6.57;;;23.20;29.40;;;;;;5082725;28;20754;-82
2022/08/17 00:51:46;;;;;;;70.70;6.67;;;23.10;26.10;;;;;;5082930;28;20745;-82
2022/08/17 00:54:17;;;;;;;68.90;7.07;;;23.10;27.00;;;;;;5083217;28;20469;-82
2022/08/17 00:56:52;;;;;;;69.20;5.83;;;23.20;29.60;;;;;;5064599;28;20438;-82
2022/08/17 00:59:20;;;;;;;69.10;6.93;;;23.30;28.00;;;;;;5082579;28;20749;-82
2022/08/17 01:01:48;;;;;;;76.97;6.10;;;23.50;26.80;;;;;;5081975;28;20434;-82
2022/08/17 01:04:16;;;;;;;70.33;6.33;;;23.50;24.20;;;;;;5082802;28;20446;-82
2022/08/17 01:06:45;;;;;;;70.53;6.40;;;23.60;24.90;;;;;;5084243;28;20934;-82
2022/08/17 01:09:13;;;;;;;67.97;6.00;;;23.60;24.70;;;;;;5064633;28;20433;-82
2022/08/17 01:11:39;;;;;;;76.90;7.37;;;23.70;23.70;;;;;;5083574;28;20917;-82
2022/08/17 01:14:07;;;;;;;69.67;6.60;;;23.70;23.20;;;;;;5082686;28;20402;-82
2022/08/17 01:16:34;;;;;;;69.47;6.40;;;23.70;22.10;;;;;;5048895;28;20438;-82
2022/08/17 01:19:04;;;;;;;69.47;6.00;;;23.70;23.00;;;;;;5082039;28;20910;-82
2022/08/17 01:22:13;;;;;;;69.20;6.07;;;23.60;22.90;;;;;;5081751;28;20445;-82
2022/08/17 01:24:42;;;;;;;72.07;6.50;;;23.60;23.50;;;;;;5020160;28;20451;-82
2022/08/17 01:27:09;;;;;;;71.13;6.87;;;23.60;23.50;;;;;;5073993;28;20436;-82
2022/08/17 01:29:38;;;;;;;70.27;6.40;;;23.50;23.70;;;;;;5082731;28;20502;-82
2022/08/17 01:32:05;;;;;;;68.73;6.10;;;23.50;24.20;;;;;;5083995;28;20763;-82
2022/08/17 01:34:32;;;;;;;69.00;5.60;;;23.50;23.80;;;;;;5083726;28;20407;-82
2022/08/17 01:36:57;;;;;;;73.17;6.40;;;23.50;24.20;;;;;;5065275;28;20957;-82
2022/08/17 01:39:36;;;;;;;70.57;6.10;;;23.50;25.10;;;;;;5081704;28;20407;-82
2022/08/17 01:42:09;;;;;;;71.67;6.40;;;23.50;25.80;;;;;;5082324;28;20153;-82
2022/08/17 01:44:35;;;;;;;73.20;7.33;;;23.40;25.80;;;;;;5063753;28;20957;-82
2022/08/17 01:47:01;;;;;;;68.27;6.00;;;23.30;25.80;;;;;;5081633;28;20426;-82
2022/08/17 01:49:27;;;;;;;72.63;6.33;;;23.30;26.90;;;;;;5081373;28;20441;-82
2022/08/17 01:51:53;;;;;;;73.60;6.27;;;23.20;27.20;;;;;;5081353;28;20470;-82
2022/08/17 01:54:21;;;;;;;71.60;5.87;;;23.10;28.80;;;;;;5083537;28;20172;-82
2022/08/17 01:56:49;;;;;;;70.77;6.70;;;23.30;27.50;;;;;;5081704;28;20431;-82
2022/08/17 01:59:17;;;;;;;70.10;6.10;;;23.10;26.60;;;;;;5083145;28;20402;-82
2022/08/17 02:01:43;;;;;;;71.67;6.47;;;23.20;26.90;;;;;;5083066;28;20411;-82
2022/08/17 02:04:10;;;;;;;70.63;6.20;;;23.10;27.60;;;;;;5083034;28;20496;-82
2022/08/17 02:06:38;;;;;;;73.43;6.57;;;23.20;28.00;;;;;;5065371;28;20427;-82
2022/08/17 02:09:06;;;;;;;70.23;6.87;;;23.20;27.40;;;;;;5066401;28;20426;-82
2022/08/17 02:11:34;;;;;;;70.00;6.67;;;23.20;28.30;;;;;;5065384;28;20422;-82
2022/08/17 02:14:00;;;;;;;69.17;6.93;;;23.20;28.10;;;;;;5083576;28;20398;-82
2022/08/17 02:16:26;;;;;;;70.57;6.83;;;23.20;27.80;;;;;;5083418;28;20415;-82
2022/08/17 02:18:51;;;;;;;71.37;7.67;;;23.20;27.60;;;;;;5082516;28;20459;-82
2022/08/17 02:21:17;;;;;;;70.63;6.90;;;23.20;27.20;;;;;;5083132;28;20160;-82
2022/08/17 02:23:48;;;;;;;68.77;6.43;;;23.20;27.60;;;;;;5083224;28;20179;-82
2022/08/17 02:26:14;;;;;;;75.27;8.30;;;23.10;28.30;;;;;;5083216;28;20226;-82
2022/08/17 02:28:39;;;;;;;69.10;7.10;;;23.10;28.70;;;;;;5082466;28;20406;-82
2022/08/17 02:31:07;;;;;;;69.80;7.20;;;23.00;30.00;;;;;;5082244;28;20241;-82
2022/08/17 02:33:35;;;;;;;68.33;6.83;;;23.00;30.40;;;;;;5081969;28;20160;-82
2022/08/17 02:36:02;;;;;;;73.10;7.77;;;23.10;29.80;;;;;;5082000;28;20475;-82
2022/08/17 02:38:31;;;;;;;71.70;6.33;;;23.00;30.50;;;;;;5081219;28;20410;-82
2022/08/17 02:40:57;;;;;;;69.43;7.17;;;23.00;31.60;;;;;;5081090;28;20823;-82
2022/08/17 02:43:24;;;;;;;75.57;7.10;;;23.00;32.00;;;;;;5081899;28;20407;-82
2022/08/17 02:45:50;;;;;;;71.30;8.10;;;23.00;32.60;;;;;;5081065;28;20438;-82
2022/08/17 02:48:16;;;;;;;69.60;7.53;;;23.00;31.80;;;;;;5063626;28;20460;-82
2022/08/17 02:50:41;;;;;;;69.53;7.23;;;23.00;32.20;;;;;;5084812;28;20410;-82
2022/08/17 02:53:07;;;;;;;69.60;6.73;;;22.90;32.30;;;;;;5066892;28;20179;-82
2022/08/17 02:55:35;;;;;;;73.90;7.30;;;22.90;32.80;;;;;;5085148;28;20168;-82
2022/08/17 02:58:02;;;;;;;70.77;8.03;;;22.90;33.30;;;;;;5085145;28;20218;-82
2022/08/17 03:00:34;;;;;;;71.60;7.40;;;22.90;34.00;;;;;;5084312;28;20412;-82
2022/08/17 03:03:01;;;;;;;69.77;7.70;;;22.70;37.20;;;;;;5085299;28;20459;-82
2022/08/17 03:05:29;;;;;;;70.77;7.27;;;22.60;38.20;;;;;;5084861;28;20430;-82
2022/08/17 03:07:56;;;;;;;69.10;7.00;;;22.60;39.30;;;;;;5066467;28;20431;-82
2022/08/17 03:10:23;;;;;;;67.50;7.20;;;22.60;39.10;;;;;;5083786;28;20410;-82
2022/08/17 03:12:51;;;;;;;73.07;8.53;;;22.50;41.30;;;;;;5084534;28;20403;-82
2022/08/17 03:15:20;;;;;;;73.83;8.60;;;22.50;42.70;;;;;;5084016;28;20501;-82
2022/08/17 03:17:49;;;;;;;70.50;7.33;;;22.50;41.50;;;;;;5065790;28;20476;-82
2022/08/17 03:20:16;;;;;;;68.07;6.87;;;22.50;40.70;;;;;;5067461;28;20414;-82
2022/08/17 03:22:48;;;;;;;71.47;7.10;;;22.40;41.80;;;;;;5066066;28;20913;-82
2022/08/17 03:25:20;;;;;;;70.37;7.63;;;22.40;40.20;;;;;;5084881;28;20426;-82
2022/08/17 03:27:46;;;;;;;69.10;7.33;;;22.50;39.40;;;;;;5084405;28;20430;-82
2022/08/17 03:30:12;;;;;;;70.33;5.90;;;22.40;39.60;;;;;;5141905;22;20493;-87
2022/08/17 03:32:46;;;;;;;68.87;6.73;;;22.50;37.10;;;;;;5076247;28;20156;-86
2022/08/17 03:35:15;;;;;;;69.27;6.70;;;22.50;35.60;;;;;;5075802;28;20484;-87
2022/08/17 03:37:40;;;;;;;70.17;6.67;;;22.50;35.30;;;;;;5075935;28;20450;-87
2022/08/17 03:40:08;;;;;;;69.00;6.00;;;22.50;34.00;;;;;;5076151;28;20390;-87
2022/08/17 03:42:37;;;;;;;68.67;6.03;;;22.60;32.60;;;;;;5075945;28;20164;-87
2022/08/17 03:45:04;;;;;;;68.30;6.03;;;22.50;32.90;;;;;;5075849;28;20464;-87
2022/08/17 03:58:32;;;;;;;69.87;6.60;;;22.10;34.30;;;;;;5075281;28;20884;-84
2022/08/17 04:00:59;;;;;;;67.40;5.47;;;22.00;39.50;;;;;;5073777;28;20399;-84
2022/08/17 04:03:24;;;;;;;67.80;6.30;;;21.90;35.10;;;;;;5074967;28;20157;-84
2022/08/17 04:05:50;;;;;;;67.60;5.83;;;21.80;36.40;;;;;;5074817;28;20968;-84
2022/08/17 04:08:16;;;;;;;70.50;6.67;;;21.80;37.60;;;;;;5075178;28;20231;-84
2022/08/17 04:10:42;;;;;;;68.00;5.83;;;21.80;35.40;;;;;;5075032;28;20172;-84
2022/08/17 04:13:09;;;;;;;69.70;5.70;;;21.80;36.00;;;;;;5056787;28;20437;-84
2022/08/17 04:15:35;;;;;;;68.43;6.30;;;21.80;34.90;;;;;;5056649;28;20915;-85
2022/08/17 04:18:01;;;;;;;69.33;6.00;;;21.80;35.30;;;;;;5074710;28;20438;-84
2022/08/17 04:20:27;;;;;;;67.87;6.03;;;21.80;34.90;;;;;;5074519;28;20513;-84
2022/08/17 04:23:05;;;;;;;70.90;6.47;;;21.90;35.40;;;;;;5074472;28;20164;-84
2022/08/17 04:25:33;;;;;;;68.00;5.70;;;21.90;30.80;;;;;;5056499;28;20873;-85
2022/08/17 04:28:00;;;;;;;68.57;6.63;;;21.80;30.10;;;;;;5074288;28;20441;-85
2022/08/17 04:30:28;;;;;;;72.10;6.33;;;21.70;34.40;;;;;;5074190;28;20485;-85
2022/08/17 04:32:57;;;;;;;70.27;6.97;;;21.70;33.00;;;;;;5074296;28;20403;-85
2022/08/17 04:35:25;;;;;;;70.70;6.80;;;21.70;32.00;;;;;;5056163;28;20909;-85
2022/08/17 04:37:51;;;;;;;68.23;6.10;;;21.70;31.40;;;;;;5056096;28;20427;-85
2022/08/17 04:43:15;;;;;;;68.80;6.47;;;21.70;31.10;;;;;;5074631;28;20218;-85
2022/08/17 04:45:46;;;;;;;69.00;6.60;;;21.80;30.70;;;;;;5074210;28;20834;-84
2022/08/17 04:48:13;;;;;;;71.07;6.73;;;21.80;30.00;;;;;;5074293;28;20379;-84
2022/08/17 04:50:45;;;;;;;68.00;5.53;;;21.90;29.40;;;;;;5056094;28;20914;-84
2022/08/17 04:53:12;;;;;;;69.77;6.00;;;22.00;29.00;;;;;;5056800;28;20447;-84
2022/08/17 04:55:38;;;;;;;69.07;6.23;;;22.00;28.60;;;;;;5073782;28;20824;-84
2022/08/17 04:58:04;;;;;;;68.20;6.27;;;22.10;28.20;;;;;;5073818;28;20405;-84
2022/08/17 05:00:30;;;;;;;68.77;6.43;;;22.10;27.30;;;;;;5073903;28;20961;-84
2022/08/17 05:02:56;;;;;;;72.30;6.10;;;22.20;27.90;;;;;;5073759;28;20498;-84
2022/08/17 05:05:25;;;;;;;68.20;6.03;;;22.10;27.40;;;;;;5073607;28;20257;-84
2022/08/17 05:07:56;;;;;;;68.57;6.23;;;22.00;27.00;;;;;;5073746;28;20434;-84
2022/08/17 05:10:25;;;;;;;72.63;6.47;;;22.00;28.10;;;;;;5073679;28;20470;-85
2022/08/17 05:13:03;;;;;;;69.20;6.50;;;21.90;29.90;;;;;;5073209;28;20754;-85
2022/08/17 05:15:30;;;;;;;69.77;6.20;;;22.00;29.80;;;;;;5073871;28;20410;-85
2022/08/17 05:17:56;;;;;;;71.87;6.70;;;22.00;27.30;;;;;;5073390;28;20479;-85
2022/08/17 05:20:24;;;;;;;67.47;5.60;;;22.00;27.00;;;;;;5073487;28;20815;-85
2022/08/17 05:22:51;;;;;;;70.83;6.40;;;22.00;26.90;;;;;;5073761;28;20406;-84
2022/08/17 05:25:19;;;;;;;72.97;6.33;;;22.10;26.90;;;;;;5073452;28;20445;-84
2022/08/17 05:27:45;;;;;;;67.50;5.70;;;22.20;26.00;;;;;;5073296;28;20441;-84
2022/08/17 05:30:12;;;;;;;68.53;5.57;;;22.20;24.40;;;;;;5073193;28;20418;-84
2022/08/17 05:32:37;;;;;;;71.53;6.17;;;22.20;23.70;;;;;;5055153;28;20543;-84
2022/08/17 05:35:04;;;;;;;71.07;6.50;;;22.20;23.60;;;;;;5073544;28;20409;-84
2022/08/17 05:37:30;;;;;;;66.37;5.03;;;22.10;24.30;;;;;;5073428;28;20200;-84
2022/08/17 05:39:56;;;;;;;67.70;5.37;;;22.20;24.00;;;;;;5073279;28;20458;-84
2022/08/17 05:42:22;;;;;;;72.00;5.17;;;22.20;23.20;;;;;;5073275;28;20526;-84
2022/08/17 05:44:47;;;;;;;67.93;5.67;;;22.20;23.60;;;;;;5073433;28;20188;-84
2022/08/17 05:47:13;;;;;;;66.50;5.37;;;22.30;23.10;;;;;;5073115;28;20426;-84
2022/08/17 05:49:39;;;;;;;68.83;5.83;;;22.30;21.70;;;;;;5073386;28;20199;-84
2022/08/17 05:52:19;;;;;;;69.33;5.97;;;22.50;21.20;;;;;;5055184;28;20196;-84
2022/08/17 05:54:57;;;;;;;67.90;5.43;;;22.50;21.20;;;;;;5056011;28;20250;-84
2022/08/17 05:57:40;;;;;;;70.37;6.57;;;22.70;20.60;;;;;;5055068;28;20429;-85
2022/08/17 06:00:22;;;;;;;70.40;6.07;;;22.80;20.30;;;;;;5073046;28;20480;-85
2022/08/17 06:03:07;;;;;;;71.07;6.37;;;22.80;20.80;;;;;;5055853;28;20418;-85
2022/08/17 06:05:32;;;;;;;71.90;7.60;;;22.80;22.40;;;;;;5073176;28;20441;-85
2022/08/17 06:08:22;;;;;;;72.20;7.23;;;22.80;22.90;;;;;;5072905;28;20425;-85
2022/08/17 06:11:01;;;;;;;74.57;7.27;;;22.60;26.50;;;;;;5073000;28;20183;-85
2022/08/17 06:13:45;;;;;;;72.50;7.63;;;22.70;28.50;;;;;;5072904;28;20406;-85
2022/08/17 06:16:19;;;;;;;68.90;7.57;;;22.60;30.80;;;;;;5072817;28;20421;-85
2022/08/17 06:18:53;;;;;;;70.10;7.10;;;22.70;28.80;;;;;;5072923;28;20393;-85
2022/08/17 06:21:21;;;;;;;71.07;10.30;;;22.80;29.20;;;;;;5073083;28;20469;-85
2022/08/17 06:23:55;;;;;;;70.53;8.10;;;22.80;32.70;;;;;;5055586;28;20408;-85
2022/08/17 06:26:30;;;;;;;73.60;7.90;;;22.90;30.80;;;;;;5058993;28;20990;-85
2022/08/17 06:29:03;;;;;;;76.00;8.87;;;23.00;29.60;;;;;;5076584;28;20393;-85
2022/08/17 06:31:35;;;;;;;70.50;7.00;;;23.00;28.20;;;;;;5076993;28;20386;-85
2022/08/17 06:34:03;;;;;;;71.50;7.40;;;23.10;28.60;;;;;;5058598;28;20395;-85
2022/08/17 06:36:39;;;;;;;71.20;7.50;;;23.20;27.20;;;;;;5076447;28;20410;-85
2022/08/17 06:39:23;;;;;;;70.67;6.80;;;23.30;26.40;;;;;;5059399;28;20397;-85
2022/08/17 06:42:08;;;;;;;72.77;7.17;;;23.30;26.10;;;;;;5077093;28;20727;-86
2022/08/17 06:44:56;;;;;;;71.37;7.40;;;23.50;24.20;;;;;;5078953;28;20488;-87
2022/08/17 06:47:43;;;;;;;71.27;8.20;;;23.50;25.50;;;;;;5060708;28;20520;-87
2022/08/17 06:50:34;;;;;;;69.07;7.20;;;23.70;33.00;;;;;;5078743;28;20380;-87
2022/08/17 06:53:12;;;;;;;70.03;7.50;;;23.70;25.80;;;;;;5078440;28;20411;-87
2022/08/17 06:55:47;;;;;;;71.60;6.83;;;23.80;21.80;;;;;;5079365;28;20399;-87
2022/08/17 06:58:19;;;;;;;74.73;7.10;;;23.90;19.00;;;;;;5082115;28;20481;-88
2022/08/17 07:00:47;;;;;;;73.50;7.43;;;23.90;19.20;;;;;;5076868;28;20391;-86
2022/08/17 07:04:03;;;;;;;70.00;6.33;;;23.90;18.80;;;;;;5076070;28;20989;-86
2022/08/17 07:06:37;;;;;;;79.90;7.20;;;23.90;18.80;;;;;;5014183;28;20833;-85
2022/08/17 07:09:38;;;;;;;70.57;6.40;;;24.00;18.10;;;;;;5014330;28;20549;-85
2022/08/17 07:12:13;;;;;;;69.00;5.93;;;24.00;17.00;;;;;;5052645;28;20584;-85
2022/08/17 07:15:05;;;;;;;73.13;6.90;;;24.00;15.20;;;;;;5057971;28;20399;-85
2022/08/17 07:17:33;;;;;;;69.97;6.50;;;24.00;14.90;;;;;;5050363;28;20478;-85
2022/08/17 07:20:08;;;;;;;69.30;6.60;;;24.10;15.50;;;;;;5057759;28;20410;-85
2022/08/17 07:22:45;;;;;;;71.17;7.13;;;24.20;14.00;;;;;;5075726;28;20378;-85
2022/08/17 07:25:15;;;;;;;70.87;6.47;;;24.30;14.10;;;;;;5075821;28;20485;-85
2022/08/17 07:27:49;;;;;;;75.30;7.67;;;24.40;12.90;;;;;;5075463;28;20424;-85
2022/08/17 07:30:21;;;;;;;73.70;7.07;;;24.40;12.60;;;;;;5057651;28;20480;-85
2022/08/17 07:33:08;;;;;;;70.50;7.00;;;24.40;11.70;;;;;;5057994;28;20429;-85
2022/08/17 07:35:38;;;;;;;76.70;7.83;;;24.30;10.10;;;;;;5075679;28;20392;-85
2022/08/17 07:38:14;;;;;;;73.80;7.53;;;24.40;9.60;;;;;;5057460;28;20515;-85
2022/08/17 07:40:47;;;;;;;73.07;8.83;;;24.40;11.00;;;;;;5057514;28;20415;-85
2022/08/17 07:43:24;;;;;;;74.60;8.60;;;24.40;11.70;;;;;;5075890;28;20396;-85
2022/08/17 07:48:54;;;;;;;74.67;9.10;;;24.30;12.00;;;;;;5075289;28;20388;-85
2022/08/17 07:51:20;;;;;;;74.07;8.43;;;24.20;14.00;;;;;;5075479;28;20418;-85
2022/08/17 07:53:46;;;;;;;76.07;8.07;;;24.20;13.20;;;;;;5075466;28;20811;-85
2022/08/17 07:56:32;;;;;;;73.43;8.87;;;24.30;12.30;;;;;;5075037;28;20199;-84
2022/08/17 07:59:11;;;;;;;69.97;7.60;;;24.10;13.10;;;;;;5075287;28;20397;-84
2022/08/17 08:01:37;;;;;;;74.90;8.43;;;24.30;12.00;;;;;;5075143;28;20476;-85
2022/08/17 08:04:24;;;;;;;74.60;9.00;;;24.30;11.70;;;;;;5074815;28;20490;-84
2022/08/17 08:06:51;;;;;;;71.77;8.40;;;24.30;9.80;;;;;;5074821;28;20177;-85
2022/08/17 08:09:58;;;;;;;71.50;8.03;;;24.20;11.50;;;;;;5075004;28;20747;-85
2022/08/17 08:12:35;;;;;;;72.67;9.53;;;24.20;11.00;;;;;;5012961;28;20408;-84
2022/08/17 08:15:08;;;;;;;71.70;8.63;;;24.10;11.30;;;;;;5069389;28;20409;-84
2022/08/17 08:17:46;;;;;;;73.93;8.27;;;24.10;13.00;;;;;;5056609;28;20443;-85
2022/08/17 08:20:12;;;;;;;75.27;9.70;;;24.10;14.00;;;;;;5074860;28;20378;-84
2022/08/17 08:22:59;;;;;;;71.87;9.13;;;24.00;13.70;;;;;;5074546;28;20924;-85
2022/08/17 08:25:38;;;;;;;72.07;9.37;;;23.80;15.90;;;;;;5075000;28;21001;-84
2022/08/17 08:28:23;;;;;;;71.87;9.60;;;23.80;18.90;;;;;;5056511;28;20411;-84
2022/08/17 08:31:06;;;;;;;72.90;9.13;;;23.70;19.30;;;;;;5074789;28;20416;-84
2022/08/17 08:33:39;;;;;;;72.70;8.40;;;23.60;22.20;;;;;;5074636;28;20786;-84
2022/08/17 08:36:38;;;;;;;72.07;9.27;;;23.70;21.90;;;;;;5074489;28;20986;-84
2022/08/17 08:39:33;;;;;;;70.43;8.40;;;23.60;23.80;;;;;;5074250;28;20379;-84
2022/08/17 08:42:15;;;;;;;72.83;9.40;;;23.60;24.20;;;;;;5072283;28;20408;-84
2022/08/17 08:44:58;;;;;;;72.40;9.03;;;23.50;24.00;;;;;;5074367;28;20440;-85
2022/08/17 08:47:43;;;;;;;73.90;10.60;;;23.60;24.30;;;;;;5073436;28;20925;-84
2022/08/17 08:50:26;;;;;;;74.53;8.90;;;23.70;23.80;;;;;;5056055;28;20404;-84
2022/08/17 08:53:10;;;;;;;71.87;9.07;;;23.80;22.10;;;;;;5073890;28;20391;-84
2022/08/17 08:55:58;;;;;;;74.00;9.43;;;23.80;20.90;;;;;;5074106;28;20428;-84
2022/08/17 08:58:53;;;;;;;72.67;9.53;;;23.70;18.80;;;;;;5075105;28;20399;-84
2022/08/17 09:01:47;;;;;;;71.67;9.80;;;23.70;21.10;;;;;;5073791;28;20394;-84
2022/08/17 09:04:37;;;;;;;71.37;9.67;;;23.80;19.50;;;;;;5073615;28;20410;-84
2022/08/17 09:07:30;;;;;;;71.57;9.20;;;23.90;17.90;;;;;;5073794;28;20541;-85
2022/08/17 09:10:28;;;;;;;72.50;9.60;;;23.90;17.70;;;;;;5073646;28;20382;-84
2022/08/17 09:13:02;;;;;;;72.90;9.70;;;24.00;15.80;;;;;;5073609;28;20762;-85
2022/08/17 09:15:36;;;;;;;73.07;10.50;;;24.00;15.20;;;;;;5073506;28;20409;-84
2022/08/17 09:18:09;;;;;;;74.27;9.60;;;24.10;15.20;;;;;;5073794;28;20392;-85
2022/08/17 09:20:58;;;;;;;73.40;10.20;;;24.10;15.60;;;;;;5073376;28;20413;-85
2022/08/17 09:23:41;;;;;;;72.73;9.40;;;24.00;15.70;;;;;;5073739;28;20384;-84
2022/08/17 09:26:25;;;;;;;71.37;9.70;;;24.00;15.80;;;;;;5073880;28;20460;-84
2022/08/17 09:31:27;;;;;;;74.30;9.77;;;23.90;18.80;;;;;;5039944;28;20525;-81
2022/08/17 09:33:57;;;;;;;80.53;9.60;;;23.90;19.90;;;;;;5024254;28;20405;-81
2022/08/17 09:36:41;;;;;;;73.87;9.20;;;23.90;22.00;;;;;;5041220;28;20905;-81
2022/08/17 09:39:13;;;;;;;73.03;9.00;;;23.80;23.40;;;;;;5041693;28;20774;-81
2022/08/17 09:42:09;;;;;;;76.03;10.43;;;23.70;23.60;;;;;;5040520;28;20378;-81
2022/08/17 09:44:59;;;;;;;80.93;10.70;;;23.70;23.80;;;;;;5041464;28;20513;-82
2022/08/17 09:47:48;;;;;;;73.83;10.67;;;23.70;23.30;;;;;;5040340;28;20570;-81
2022/08/17 09:50:20;;;;;;;73.67;9.83;;;23.60;23.70;;;;;;5023162;28;20427;-81
2022/08/17 09:52:48;;;;;;;71.17;9.37;;;23.50;25.00;;;;;;5023525;28;20767;-81
2022/08/17 09:55:14;;;;;;;72.23;9.87;;;23.50;25.10;;;;;;5040548;28;20401;-81
2022/08/17 09:57:46;;;;;;;73.00;11.40;;;23.50;26.20;;;;;;5041980;28;20417;-81
2022/08/17 10:00:23;;;;;;;73.33;11.40;;;23.50;30.40;;;;;;5045544;28;20161;-83
2022/08/17 10:03:10;;;;;;;81.23;14.40;;;23.40;37.40;;;;;;5043075;28;20443;-84
2022/08/17 10:05:39;;;;;;;78.83;13.93;;;23.30;44.00;;;;;;5045280;28;20454;-83
2022/08/17 10:08:28;;;;;;;74.93;15.80;;;23.30;45.50;;;;;;5044753;28;20376;-83
2022/08/17 10:15:01;;;;;;;77.70;13.87;;;23.40;48.60;;;;;;5043883;28;20383;-83
2022/08/17 10:17:37;;;;;;;74.40;13.37;;;23.40;50.10;;;;;;5045395;28;20416;-83
2022/08/17 10:20:15;;;;;;;76.97;14.10;;;23.50;50.90;;;;;;5044479;28;20471;-83
2022/08/17 10:28:43;;;;;;;76.73;14.50;;;24.00;40.20;;;;;;5043655;28;20535;-82
2022/08/17 10:31:16;;;;;;;76.10;13.90;;;24.20;37.60;;;;;;5043752;28;20454;-82
2022/08/17 10:34:23;;;;;;;73.47;13.00;;;24.40;34.60;;;;;;5044687;28;20399;-83
2022/08/17 10:37:10;;;;;;;75.07;12.23;;;24.60;33.00;;;;;;5016136;28;20433;-82
2022/08/17 10:39:42;;;;;;;74.00;12.60;;;24.70;31.90;;;;;;5044628;28;20392;-82
2022/08/17 10:42:47;;;;;;;79.17;10.57;;;24.70;33.00;;;;;;5042920;28;20393;-82
2022/08/17 10:45:43;;;;;;;74.37;11.90;;;24.80;26.90;;;;;;5044265;28;20433;-82
2022/08/17 10:48:11;;;;;;;73.47;11.77;;;25.00;27.80;;;;;;5014109;28;20413;-82
2022/08/17 10:50:56;;;;;;;75.70;10.23;;;25.10;24.40;;;;;;5027052;28;20410;-82
2022/08/17 10:53:31;;;;;;;74.20;11.70;;;25.10;23.00;;;;;;5044166;28;20391;-82
2022/08/17 10:56:21;;;;;;;78.33;11.50;;;25.30;23.40;;;;;;5044238;28;20418;-82
2022/08/17 10:58:56;;;;;;;75.80;11.43;;;25.60;21.30;;;;;;5037330;28;20521;-82
2022/08/17 11:01:57;;;;;;;76.30;12.00;;;26.00;17.80;;;;;;5044298;28;20421;-82
2022/08/17 11:04:43;;;;;;;73.77;10.63;;;26.10;12.00;;;;;;5044207;28;20956;-82
2022/08/17 11:07:24;;;;;;;75.50;11.90;;;26.40;10.70;;;;;;5043686;28;20423;-82
2022/08/17 11:10:38;;;;;;;73.87;9.80;;;26.60;3.10;;;;;;5043570;28;20470;-82
2022/08/17 11:13:28;;;;;;;76.57;11.80;;;26.70;4.30;;;;;;5035812;28;20475;-83
2022/08/17 11:16:18;;;;;;;79.20;12.10;;;26.70;1.10;;;;;;5043196;28;20411;-83
2022/08/17 11:19:08;;;;;;;75.17;10.87;;;26.50;1.00;;;;;;5043237;28;20400;-82
2022/08/17 11:21:59;;;;;;;76.77;13.07;;;26.60;1.00;;;;;;5043822;28;20423;-82
2022/08/17 11:24:31;;;;;;;77.07;12.00;;;26.50;1.00;;;;;;5043799;28;20494;-83
2022/08/17 11:27:02;;;;;;;80.70;13.70;;;26.40;1.00;;;;;;5043433;28;20448;-82
2022/08/17 11:29:48;;;;;;;75.00;11.27;;;26.30;1.00;;;;;;5024664;28;20756;-82
2022/08/17 11:32:32;;;;;;;76.37;13.13;;;26.30;2.20;;;;;;5031723;28;20438;-83
2022/08/17 11:35:19;;;;;;;77.37;12.97;;;26.20;2.50;;;;;;5042101;28;20808;-83
2022/08/17 11:38:06;;;;;;;78.50;14.00;;;26.20;2.90;;;;;;5041538;28;20858;-83
2022/08/17 11:41:01;;;;;;;79.47;13.53;;;26.20;2.90;;;;;;5041794;28;20404;-83
2022/08/17 11:43:55;;;;;;;74.30;11.97;;;26.40;2.70;;;;;;5042071;28;20380;-83
2022/08/17 11:52:55;;;;;;;79.17;14.60;;;26.90;1.10;;;;;;5041736;28;20897;-83
2022/08/17 11:55:31;;;;;;;78.43;12.40;;;27.10;1.00;;;;;;5042981;28;20432;-83
2022/08/17 11:58:28;;;;;;;78.80;14.50;;;27.10;1.00;;;;;;5041739;28;20184;-83
2022/08/17 12:01:02;;;;;;;78.70;13.07;;;27.30;1.00;;;;;;5041631;28;20401;-83
2022/08/17 12:03:30;;;;;;;78.47;13.87;;;27.60;1.00;;;;;;5023527;28;20923;-83
2022/08/17 12:06:23;;;;;;;84.17;15.40;;;27.90;1.00;;;;;;5022544;28;20455;-83
2022/08/17 12:08:55;;;;;;;76.70;14.97;;;28.30;1.00;;;;;;5041031;28;20384;-83
2022/08/17 12:11:48;;;;;;;77.17;14.10;;;28.50;1.00;;;;;;5041239;28;20872;-83
2022/08/17 12:14:25;;;;;;;79.33;14.60;;;28.60;1.00;;;;;;5022782;28;20458;-83
2022/08/17 12:17:10;;;;;;;78.87;13.60;;;28.60;1.00;;;;;;5039409;28;20450;-83
2022/08/17 12:19:38;;;;;;;77.47;12.97;;;28.60;1.00;;;;;;5040937;28;20380;-83
2022/08/17 12:22:15;;;;;;;76.60;13.33;;;28.50;1.00;;;;;;5038690;28;20856;-83
2022/08/17 12:24:54;;;;;;;84.50;14.17;;;28.40;1.00;;;;;;5039321;28;20431;-83
2022/08/17 12:27:25;;;;;;;77.33;11.70;;;28.10;1.00;;;;;;5021059;28;21046;-83
2022/08/17 12:29:52;;;;;;;79.70;13.90;;;28.20;1.00;;;;;;5021287;28;20432;-83
2022/08/17 12:32:20;;;;;;;79.60;11.50;;;28.10;1.00;;;;;;5040226;28;20412;-83
2022/08/17 12:34:48;;;;;;;75.77;12.13;;;28.40;1.00;;;;;;5038950;28;20816;-83
2022/08/17 12:37:19;;;;;;;76.67;12.00;;;28.20;1.00;;;;;;5040100;28;20856;-83
2022/08/17 12:40:05;;;;;;;78.40;11.67;;;28.40;1.00;;;;;;5039458;28;20411;-83
2022/08/17 12:42:36;;;;;;;78.43;12.03;;;28.60;1.00;;;;;;5021856;28;20411;-83
2022/08/17 12:45:06;;;;;;;75.00;10.47;;;28.70;1.00;;;;;;5022128;28;20467;-83
2022/08/17 12:47:35;;;;;;;76.50;10.73;;;28.80;1.00;;;;;;5039034;28;20479;-83
2022/08/17 12:50:09;;;;;;;75.83;12.10;;;28.90;1.00;;;;;;5040144;28;20435;-83
2022/08/17 12:52:38;;;;;;;76.97;13.33;;;28.90;1.00;;;;;;5040733;28;20376;-83
2022/08/17 12:55:25;;;;;;;75.67;12.10;;;28.90;1.00;;;;;;5039526;28;20931;-83
2022/08/17 12:57:53;;;;;;;74.90;11.40;;;28.90;1.00;;;;;;5022149;28;20966;-82
2022/08/17 13:00:40;;;;;;;75.17;12.00;;;29.00;1.00;;;;;;5040446;28;20403;-83
2022/08/17 13:03:16;;;;;;;75.97;11.00;;;28.90;1.00;;;;;;5021539;28;20418;-83
2022/08/17 13:06:06;;;;;;;73.70;10.87;;;28.90;1.00;;;;;;5039843;28;20473;-83
2022/08/17 13:08:43;;;;;;;74.07;10.50;;;28.90;1.00;;;;;;5041079;28;20393;-84
2022/08/17 13:11:17;;;;;;;74.27;11.80;;;28.90;1.00;;;;;;5021291;28;20404;-83
2022/08/17 13:14:09;;;;;;;73.57;11.13;;;28.90;1.00;;;;;;5021467;28;20407;-83
2022/08/17 13:16:35;;;;;;;79.20;11.83;;;28.80;1.00;;;;;;5038783;28;20838;-83
2022/08/17 13:19:07;;;;;;;76.73;11.60;;;28.80;1.00;;;;;;5039681;28;20403;-84
2022/08/17 13:21:36;;;;;;;75.80;11.27;;;28.80;1.00;;;;;;5039750;28;20428;-83
2022/08/17 13:24:10;;;;;;;75.40;11.73;;;29.00;1.00;;;;;;5039842;28;20400;-83
2022/08/17 13:26:47;;;;;;;73.10;10.33;;;29.00;1.00;;;;;;5022143;28;20459;-83
2022/08/17 13:29:25;;;;;;;79.10;12.00;;;28.80;1.00;;;;;;5039191;28;20384;-83
2022/08/17 13:32:08;;;;;;;73.53;10.57;;;28.60;1.00;;;;;;5040271;28;20435;-83
2022/08/17 13:34:34;;;;;;;76.73;11.70;;;28.60;1.00;;;;;;5021830;28;20412;-83
2022/08/17 13:37:27;;;;;;;75.53;12.00;;;28.50;1.00;;;;;;5039503;28;20523;-83
2022/08/17 13:40:08;;;;;;;79.80;12.07;;;28.50;1.00;;;;;;5020435;28;20412;-83
2022/08/17 13:42:43;;;;;;;75.13;11.30;;;28.20;1.00;;;;;;5039366;28;20410;-83
2022/08/17 13:45:30;;;;;;;74.13;11.20;;;27.90;1.00;;;;;;5020115;28;20538;-83
2022/08/17 13:48:10;;;;;;;76.07;10.70;;;27.70;1.00;;;;;;5039355;28;20426;-83
2022/08/17 13:51:02;;;;;;;74.97;11.13;;;27.60;1.00;;;;;;5021898;28;20419;-83